Time;durP1;ratioP1;P1;durP2;ratioP2;P2;SDS_P1;SDS_P2;PMS_P1;PMS_P2;Temp;Humidity;BMP_temperature;BMP_pressure;BME280_temperature;BME280_humidity;BME280_pressure;Samples;Min_cycle;Max_cycle;Signal;HPM_P1;HPM_P2
2022/01/01 00:02:09;;;;;;;93.45;54.88;;;;;;;11.53;100.00;102206.22;5052217;28;20057;-52
2022/01/01 00:04:58;;;;;;;82.55;50.90;;;;;;;11.50;100.00;102207.22;5052141;28;20103;-52
2022/01/01 00:07:26;;;;;;;75.57;46.65;;;;;;;11.48;100.00;102209.09;5050035;28;20045;-51
2022/01/01 00:09:55;;;;;;;72.65;44.00;;;;;;;11.52;100.00;102209.81;5049694;28;20700;-52
2022/01/01 00:12:28;;;;;;;73.68;43.58;;;;;;;11.54;100.00;102218.47;5051196;28;20060;-49
2022/01/01 00:14:56;;;;;;;67.55;41.42;;;;;;;11.53;100.00;102226.47;5051919;28;20041;-51
2022/01/01 00:17:24;;;;;;;68.45;40.22;;;;;;;11.51;100.00;102221.28;5052106;28;20049;-51
2022/01/01 00:19:52;;;;;;;56.67;37.40;;;;;;;11.51;100.00;102218.63;5051869;28;20091;-53
2022/01/01 00:22:20;;;;;;;61.50;37.97;;;;;;;11.55;100.00;102229.88;5051960;28;20064;-53
2022/01/01 00:24:48;;;;;;;57.55;32.00;;;;;;;11.56;100.00;102223.69;5049782;28;20040;-50
2022/01/01 00:27:17;;;;;;;51.17;26.80;;;;;;;11.56;100.00;102221.91;5049340;28;20102;-52
2022/01/01 00:29:45;;;;;;;48.05;26.63;;;;;;;11.51;100.00;102221.28;5051747;28;20052;-52
2022/01/01 00:32:13;;;;;;;50.13;22.52;;;;;;;11.53;100.00;102208.84;5051620;28;20041;-53
2022/01/01 00:34:42;;;;;;;45.42;20.38;;;;;;;11.58;100.00;102219.19;5051735;28;20045;-50
2022/01/01 00:37:10;;;;;;;37.58;21.17;;;;;;;11.55;100.00;102216.69;5051541;28;20504;-52
2022/01/01 00:39:38;;;;;;;39.28;18.00;;;;;;;11.56;100.00;102224.53;5048806;28;20076;-54
2022/01/01 00:42:07;;;;;;;40.08;21.27;;;;;;;11.57;100.00;102223.59;5049407;28;20082;-52
2022/01/01 00:44:36;;;;;;;38.75;19.77;;;;;;;11.57;100.00;102228.88;5051518;28;20045;-53
2022/01/01 00:47:04;;;;;;;39.00;20.25;;;;;;;11.56;100.00;102221.91;5051571;28;20106;-52
2022/01/01 00:49:33;;;;;;;38.97;20.50;;;;;;;11.57;100.00;102220.13;5049729;28;20077;-48
2022/01/01 00:52:01;;;;;;;43.95;22.80;;;;;;;11.55;100.00;102221.97;5047961;28;20076;-49
2022/01/01 00:54:30;;;;;;;47.47;23.08;;;;;;;11.56;100.00;102228.94;5051328;28;20056;-53
2022/01/01 00:56:58;;;;;;;42.47;22.75;;;;;;;11.55;100.00;102228.09;5051447;28;20513;-53
2022/01/01 00:59:28;;;;;;;50.67;24.55;;;;;;;11.55;100.00;102235.13;5051334;28;20056;-52
2022/01/01 01:01:59;;;;;;;46.65;25.38;;;;;;;11.53;100.00;102223.81;5048343;28;20127;-53
2022/01/01 01:04:27;;;;;;;48.83;27.38;;;;;;;11.53;100.00;102218.56;5048557;28;20127;-53
2022/01/01 01:06:56;;;;;;;52.08;27.25;;;;;;;11.56;100.00;102228.94;5051245;28;20088;-53
2022/01/01 01:09:25;;;;;;;47.58;26.05;;;;;;;11.57;100.00;102231.50;5054716;28;20045;-52
2022/01/01 01:11:53;;;;;;;46.30;26.05;;;;;;;11.57;100.00;102234.13;5055268;28;20462;-51
2022/01/01 01:14:23;;;;;;;47.85;27.63;;;;;;;11.56;100.00;102229.81;5053731;28;20127;-52
2022/01/01 01:16:53;;;;;;;53.70;31.02;;;;;;;11.56;100.00;102236.84;5051304;28;20052;-53
2022/01/01 01:19:24;;;;;;;54.00;31.77;;;;;;;11.56;100.00;102232.44;5055285;28;20399;-52
2022/01/01 01:21:52;;;;;;;50.42;31.30;;;;;;;11.55;100.00;102229.88;5055185;28;20064;-52
2022/01/01 01:24:23;;;;;;;54.50;31.63;;;;;;;11.59;100.00;102236.69;5053935;28;20463;-51
2022/01/01 01:26:53;;;;;;;63.60;36.10;;;;;;;11.56;100.00;102236.84;5052812;28;20040;-55
2022/01/01 01:29:21;;;;;;;60.10;37.25;;;;;;;11.53;100.00;102240.47;5054380;28;20072;-52
2022/01/01 01:31:49;;;;;;;63.20;38.22;;;;;;;11.51;100.00;102242.34;5055126;28;20049;-53
2022/01/01 01:34:17;;;;;;;62.80;36.40;;;;;;;11.48;100.00;102235.44;5055116;28;20045;-52
2022/01/01 01:36:47;;;;;;;63.75;37.50;;;;;;;11.49;100.00;102238.91;5052729;28;20047;-53
2022/01/01 01:39:15;;;;;;;69.45;39.92;;;;;;;11.48;100.00;102245.13;5052379;28;20057;-55
2022/01/01 01:41:44;;;;;;;66.70;38.85;;;;;;;11.53;100.00;102245.75;5054757;28;20044;-53
2022/01/01 01:44:27;;;;;;;66.03;41.17;;;;;;;11.58;100.00;102250.81;5052474;28;20132;-55
2022/01/01 01:46:59;;;;;;;70.85;42.20;;;;;;;11.55;100.00;102243.03;5052030;28;20426;-53
2022/01/01 01:49:27;;;;;;;73.22;43.30;;;;;;;11.61;100.00;102240.97;5053069;28;20053;-54
2022/01/01 01:51:57;;;;;;;74.30;43.55;;;;;;;11.57;100.00;102242.03;5051368;28;20095;-53
2022/01/01 01:54:25;;;;;;;80.43;43.58;;;;;;;11.55;100.00;102241.28;5054159;28;20506;-52
2022/01/01 01:56:54;;;;;;;70.28;40.33;;;;;;;11.57;100.00;102249.94;5054558;28;20049;-53
2022/01/01 01:59:22;;;;;;;65.57;38.42;;;;;;;11.53;100.00;102247.53;5054736;28;20475;-53
2022/01/01 02:01:52;;;;;;;65.00;39.67;;;;;;;11.47;100.00;102253.94;5054753;28;20404;-55
2022/01/01 02:04:20;;;;;;;65.55;38.05;;;;;;;11.47;100.00;102259.22;5053999;28;20041;-55
2022/01/01 02:06:49;;;;;;;63.88;36.92;;;;;;;11.50;100.00;102272.25;5053979;28;20522;-54
2022/01/01 02:09:18;;;;;;;59.75;37.03;;;;;;;11.47;100.00;102269.75;5054614;28;20104;-55
2022/01/01 02:11:47;;;;;;;65.32;38.42;;;;;;;11.46;100.00;102276.78;5053222;28;20114;-55
2022/01/01 02:14:22;;;;;;;66.15;38.05;;;;;;;11.49;100.00;102278.44;5051316;28;20048;-55
2022/01/01 02:17:08;;;;;;;68.25;41.80;;;;;;;11.46;100.00;102279.41;5052238;28;20052;-52
2022/01/01 02:19:49;;;;;;;68.47;40.35;;;;;;;11.47;100.00;102280.28;5053501;28;20496;-55
2022/01/01 02:22:19;;;;;;;64.97;38.97;;;;;;;11.40;100.00;102286.75;5054123;28;20111;-54
2022/01/01 02:24:47;;;;;;;63.70;39.55;;;;;;;11.42;100.00;102277.84;5053974;28;20037;-54
2022/01/01 02:27:17;;;;;;;68.57;42.08;;;;;;;11.44;100.00;102281.28;5054072;28;20492;-55
2022/01/01 02:29:45;;;;;;;65.57;39.90;;;;;;;11.46;100.00;102281.22;5051665;28;20550;-56
2022/01/01 02:32:15;;;;;;;68.15;40.90;;;;;;;11.44;100.00;102275.19;5049034;28;20057;-55
2022/01/01 02:34:44;;;;;;;74.35;42.95;;;;;;;11.37;100.00;102268.47;5053865;28;20053;-54
2022/01/01 02:37:12;;;;;;;69.22;38.50;;;;;;;11.38;100.00;102262.28;5052150;28;20526;-55
2022/01/01 02:39:42;;;;;;;62.00;37.42;;;;;;;11.44;100.00;102262.00;5051638;28;20041;-55
2022/01/01 02:42:12;;;;;;;69.82;38.42;;;;;;;11.37;100.00;102261.44;5052872;28;20053;-55
2022/01/01 02:44:43;;;;;;;62.80;38.65;;;;;;;11.40;100.00;102263.03;5053724;28;20041;-51
2022/01/01 02:47:12;;;;;;;66.60;38.33;;;;;;;11.39;100.00;102272.75;5053746;28;20048;-51
2022/01/01 02:49:40;;;;;;;67.78;36.95;;;;;;;11.41;100.00;102272.66;5052370;28;20569;-48
2022/01/01 02:52:09;;;;;;;60.35;35.42;;;;;;;11.39;100.00;102283.28;5053407;28;20051;-55
2022/01/01 02:54:37;;;;;;;60.92;35.67;;;;;;;11.39;100.00;102282.44;5053537;28;20045;-56
2022/01/01 02:57:06;;;;;;;62.65;34.50;;;;;;;11.39;100.00;102282.44;5050877;28;20041;-54
2022/01/01 02:59:34;;;;;;;60.17;34.70;;;;;;;11.41;100.00;102278.81;5050155;28;20114;-55
2022/01/01 03:02:03;;;;;;;57.88;33.58;;;;;;;11.42;100.00;102271.75;5052816;28;20048;-55
2022/01/01 03:04:31;;;;;;;63.53;33.38;;;;;;;11.40;100.00;102268.31;5053361;28;20053;-54
2022/01/01 03:07:00;;;;;;;56.53;32.60;;;;;;;11.47;100.00;102273.25;5050280;28;20049;-55
2022/01/01 03:09:34;;;;;;;56.78;33.47;;;;;;;11.43;100.00;102268.19;5049186;28;20080;-55
2022/01/01 03:12:04;;;;;;;57.20;32.25;;;;;;;11.40;100.00;102263.91;5052855;28;20231;-49
2022/01/01 03:14:34;;;;;;;54.17;31.83;;;;;;;11.43;100.00;102260.28;5050340;28;20068;-53
2022/01/01 03:17:02;;;;;;;58.67;32.42;;;;;;;11.40;100.00;102245.47;5051021;28;20048;-52
2022/01/01 03:19:31;;;;;;;57.03;30.95;;;;;;;11.44;100.00;102244.41;5051825;28;20389;-53
2022/01/01 03:21:59;;;;;;;52.45;30.75;;;;;;;11.41;100.00;102249.81;5049955;28;20721;-55
2022/01/01 03:24:28;;;;;;;59.53;31.63;;;;;;;11.41;100.00;102244.56;5050647;28;20508;-54
2022/01/01 03:26:57;;;;;;;54.35;30.90;;;;;;;11.40;100.00;102248.13;5052591;28;20084;-54
2022/01/01 03:29:28;;;;;;;48.80;30.48;;;;;;;11.37;100.00;102242.13;5051188;28;20067;-54
2022/01/01 03:31:58;;;;;;;56.92;31.75;;;;;;;11.37;100.00;102242.13;5051737;28;20041;-54
2022/01/01 03:34:26;;;;;;;49.92;28.80;;;;;;;11.39;100.00;102250.81;5050271;28;20048;-55
2022/01/01 03:36:56;;;;;;;52.58;29.30;;;;;;;11.39;100.00;102240.28;5049222;28;20076;-53
2022/01/01 03:39:25;;;;;;;49.83;26.80;;;;;;;11.36;100.00;102243.03;5052670;28;20077;-54
2022/01/01 03:41:54;;;;;;;47.10;27.13;;;;;;;11.36;100.00;102250.94;5052783;28;20068;-51
2022/01/01 03:44:22;;;;;;;45.92;26.25;;;;;;;11.36;100.00;102253.56;5050809;28;20065;-51
2022/01/01 03:46:52;;;;;;;48.67;26.02;;;;;;;11.38;100.00;102249.09;5048732;28;20045;-48
2022/01/01 03:49:21;;;;;;;43.33;25.27;;;;;;;11.39;100.00;102245.56;5052393;28;20064;-54
2022/01/01 03:51:50;;;;;;;49.47;25.67;;;;;;;11.41;100.00;102243.69;5052023;28;20049;-54
2022/01/01 03:54:20;;;;;;;47.63;25.55;;;;;;;11.39;100.00;102233.22;5052151;28;20522;-53
2022/01/01 03:56:48;;;;;;;43.97;26.05;;;;;;;11.38;100.00;102230.66;5052445;28;20045;-53
2022/01/01 03:59:16;;;;;;;49.40;25.85;;;;;;;11.40;100.00;102221.78;5052208;28;20068;-53
2022/01/01 04:01:44;;;;;;;50.20;23.75;;;;;;;11.36;100.00;102222.84;5052046;28;20087;-53
2022/01/01 04:04:13;;;;;;;46.65;23.65;;;;;;;11.30;100.00;102231.88;5052462;28;20519;-52
2022/01/01 04:06:42;;;;;;;39.40;22.00;;;;;;;11.30;100.00;102228.38;5052003;28;20451;-53
2022/01/01 04:09:10;;;;;;;43.33;21.45;;;;;;;11.30;100.00;102237.16;5052300;28;20048;-52
2022/01/01 04:11:38;;;;;;;38.90;20.33;;;;;;;11.31;100.00;102223.03;5049865;28;20068;-51
2022/01/01 04:14:10;;;;;;;37.97;21.63;;;;;;;11.33;100.00;102236.16;5049521;28;20151;-51
2022/01/01 04:16:39;;;;;;;33.03;19.85;;;;;;;11.39;100.00;102229.75;5051836;28;20037;-53
2022/01/01 04:19:08;;;;;;;37.47;19.10;;;;;;;11.35;100.00;102222.91;5050784;28;20136;-52
2022/01/01 04:21:36;;;;;;;34.45;18.58;;;;;;;11.37;100.00;102223.69;5051849;28;20049;-53
2022/01/01 04:24:06;;;;;;;33.72;19.30;;;;;;;11.37;100.00;102236.84;5050074;28;20076;-52
2022/01/01 04:26:34;;;;;;;36.47;18.33;;;;;;;11.38;100.00;102228.03;5048472;28;20419;-51
2022/01/01 04:29:02;;;;;;;36.30;16.27;;;;;;;11.40;100.00;102231.44;5051329;28;20057;-48
2022/01/01 04:31:30;;;;;;;33.47;17.02;;;;;;;11.41;100.00;102230.50;5050269;28;20079;-48
2022/01/01 04:33:58;;;;;;;29.58;15.75;;;;;;;11.40;100.00;102231.44;5048948;28;20057;-52
2022/01/01 04:36:26;;;;;;;29.13;13.85;;;;;;;11.43;100.00;102241.84;5050651;28;20539;-53
2022/01/01 04:38:54;;;;;;;29.85;14.00;;;;;;;11.38;100.00;102239.41;5051354;28;20098;-53
2022/01/01 04:41:24;;;;;;;28.05;13.15;;;;;;;11.39;100.00;102246.41;5051722;28;20048;-50
2022/01/01 04:43:52;;;;;;;35.85;13.77;;;;;;;11.40;100.00;102244.59;5051712;28;20147;-51
2022/01/01 04:46:20;;;;;;;22.48;12.70;;;;;;;11.40;100.00;102250.75;5051181;28;20045;-53
2022/01/01 04:48:48;;;;;;;25.27;11.23;;;;;;;11.35;100.00;102250.09;5051187;28;20499;-52
2022/01/01 04:51:16;;;;;;;22.48;12.00;;;;;;;11.37;100.00;102247.38;5051571;28;20383;-53
2022/01/01 04:53:45;;;;;;;24.70;10.77;;;;;;;11.39;100.00;102245.56;5048685;28;20393;-53
2022/01/01 04:56:18;;;;;;;22.20;11.45;;;;;;;11.42;100.00;102240.97;5048554;28;20036;-53
2022/01/01 04:58:48;;;;;;;21.90;9.85;;;;;;;11.42;100.00;102238.34;5051166;28;20059;-52
2022/01/01 05:01:18;;;;;;;27.65;10.48;;;;;;;11.40;100.00;102232.31;5051360;28;20076;-49
2022/01/01 05:03:47;;;;;;;22.77;10.40;;;;;;;11.38;100.00;102239.41;5051213;28;20049;-50
2022/01/01 05:06:15;;;;;;;30.02;10.63;;;;;;;11.40;100.00;102242.84;5051307;28;20072;-50
2022/01/01 05:08:43;;;;;;;22.35;9.18;;;;;;;11.40;100.00;102234.06;5051155;28;20044;-49
2022/01/01 05:11:11;;;;;;;18.05;9.10;;;;;;;11.43;100.00;102244.47;5051301;28;20056;-52
2022/01/01 05:13:39;;;;;;;23.95;9.27;;;;;;;11.42;100.00;102243.63;5051230;28;20426;-53
2022/01/01 05:16:14;;;;;;;24.45;9.65;;;;;;;11.45;100.00;102245.25;5051213;28;20103;-52
2022/01/01 05:18:42;;;;;;;18.73;8.73;;;;;;;11.47;100.00;102246.06;5051124;28;20441;-51
2022/01/01 05:21:10;;;;;;;21.20;9.32;;;;;;;11.56;100.00;102234.22;5047306;28;20079;-52
2022/01/01 05:23:39;;;;;;;15.15;8.38;;;;;;;11.53;100.00;102237.00;5048841;28;20098;-50
2022/01/01 05:26:07;;;;;;;21.08;8.13;;;;;;;11.51;100.00;102237.06;5051591;28;20060;-52
2022/01/01 05:28:35;;;;;;;20.25;8.60;;;;;;;11.52;100.00;102243.19;5049241;28;20083;-51
2022/01/01 05:31:04;;;;;;;16.27;8.65;;;;;;;11.48;100.00;102245.13;5046858;28;20075;-51
2022/01/01 05:33:33;;;;;;;17.45;7.68;;;;;;;11.47;100.00;102244.25;5050749;28;20044;-53
2022/01/01 05:36:02;;;;;;;20.45;8.90;;;;;;;11.47;100.00;102236.34;5051047;28;20053;-52
2022/01/01 05:38:30;;;;;;;20.58;8.63;;;;;;;11.46;100.00;102239.91;5051095;28;20037;-53
2022/01/01 05:40:59;;;;;;;18.35;8.43;;;;;;;11.47;100.00;102239.00;5051166;28;20132;-52
2022/01/01 05:43:27;;;;;;;19.45;7.95;;;;;;;11.49;100.00;102241.53;5051240;28;20057;-55
2022/01/01 05:45:55;;;;;;;22.73;9.27;;;;;;;11.47;100.00;102232.88;5050984;28;20049;-52
2022/01/01 05:48:23;;;;;;;18.98;7.97;;;;;;;11.46;100.00;102236.44;5050291;28;20138;-53
2022/01/01 05:50:52;;;;;;;21.77;8.32;;;;;;;11.49;100.00;102236.28;5048184;28;20492;-54
2022/01/01 05:53:21;;;;;;;18.65;9.05;;;;;;;11.48;100.00;102231.97;5049083;28;20053;-55
2022/01/01 05:55:50;;;;;;;21.58;9.15;;;;;;;11.50;100.00;102238.00;5054492;28;20037;-55
2022/01/01 05:58:18;;;;;;;18.42;8.23;;;;;;;11.49;100.00;102245.06;5052150;28;20106;-54
2022/01/01 06:00:46;;;;;;;21.17;8.73;;;;;;;11.48;100.00;102242.50;5051576;28;20044;-54
2022/01/01 06:03:15;;;;;;;24.33;9.98;;;;;;;11.48;100.00;102237.22;5054637;28;20128;-54
2022/01/01 06:05:43;;;;;;;20.58;9.60;;;;;;;11.48;100.00;102234.59;5054508;28;20053;-54
2022/01/01 06:08:12;;;;;;;20.73;7.97;;;;;;;11.51;100.00;102223.91;5052203;28;20530;-53
2022/01/01 06:10:40;;;;;;;17.08;8.05;;;;;;;11.48;100.00;102226.69;5051165;28;20053;-53
2022/01/01 06:13:08;;;;;;;19.05;8.60;;;;;;;11.49;100.00;102220.47;5053978;28;20068;-52
2022/01/01 06:15:37;;;;;;;20.75;9.50;;;;;;;11.48;100.00;102219.63;5054072;28;20523;-54
2022/01/01 06:18:05;;;;;;;22.83;8.32;;;;;;;11.48;100.00;102213.53;5053913;28;20041;-55
2022/01/01 06:20:33;;;;;;;16.35;8.48;;;;;;;11.50;100.00;102222.19;5052258;28;20049;-55
2022/01/01 06:23:05;;;;;;;19.90;8.15;;;;;;;11.48;100.00;102224.06;5050894;28;20072;-55
2022/01/01 06:25:35;;;;;;;19.80;7.53;;;;;;;11.49;100.00;102233.66;5053610;28;20106;-55
2022/01/01 06:28:04;;;;;;;20.50;7.63;;;;;;;11.48;100.00;102242.50;5053958;28;20519;-54
2022/01/01 06:30:34;;;;;;;16.98;8.30;;;;;;;11.50;100.00;102248.53;5054169;28;20053;-54
2022/01/01 06:33:10;;;;;;;17.90;7.45;;;;;;;11.50;100.00;102251.16;5052228;28;20541;-52
2022/01/01 06:35:39;;;;;;;19.83;7.90;;;;;;;11.47;100.00;102239.00;5051382;28;20136;-52
2022/01/01 06:38:08;;;;;;;18.85;8.07;;;;;;;11.46;100.00;102236.44;5053503;28;20124;-53
2022/01/01 06:40:39;;;;;;;18.63;8.05;;;;;;;11.46;100.00;102241.69;5053963;28;20051;-52
2022/01/01 06:43:08;;;;;;;21.77;8.15;;;;;;;11.48;100.00;102250.41;5053720;28;20059;-52
2022/01/01 06:45:36;;;;;;;15.95;7.55;;;;;;;11.49;100.00;102254.72;5053767;28;20053;-56
2022/01/01 06:48:05;;;;;;;19.15;7.65;;;;;;;11.49;100.00;102265.25;5051457;28;20056;-53
2022/01/01 06:50:34;;;;;;;14.35;7.40;;;;;;;11.50;100.00;102254.66;5050500;28;20076;-52
2022/01/01 06:53:02;;;;;;;18.75;6.97;;;;;;;11.53;100.00;102240.47;5053013;28;20052;-50
2022/01/01 06:55:30;;;;;;;13.52;7.03;;;;;;;11.47;100.00;102244.25;5053084;28;20679;-52
2022/01/01 06:57:59;;;;;;;20.40;7.18;;;;;;;11.48;100.00;102248.59;5053439;28;20048;-54
2022/01/01 07:00:27;;;;;;;17.52;6.53;;;;;;;11.47;100.00;102253.94;5053499;28;20056;-53
2022/01/01 07:02:55;;;;;;;16.27;6.60;;;;;;;11.41;100.00;102251.59;5053375;28;20076;-53
2022/01/01 07:05:24;;;;;;;13.85;6.55;;;;;;;11.39;100.00;102261.34;5049752;28;20041;-52
2022/01/01 07:07:52;;;;;;;15.82;7.07;;;;;;;11.37;100.00;102265.81;5050155;28;20041;-51
2022/01/01 07:10:20;;;;;;;17.90;7.50;;;;;;;11.26;100.00;102256.66;5051383;28;20037;-53
2022/01/01 07:12:48;;;;;;;19.60;7.43;;;;;;;11.24;100.00;102265.53;5051351;28;20053;-51
2022/01/01 07:15:17;;;;;;;18.55;7.18;;;;;;;11.18;100.00;102266.69;5050978;28;20049;-51
2022/01/01 07:17:45;;;;;;;16.13;7.20;;;;;;;11.11;100.00;102266.09;5051643;28;20060;-52
2022/01/01 07:20:14;;;;;;;16.00;7.03;;;;;;;11.08;100.00;102266.22;5053156;28;20072;-50
2022/01/01 07:22:43;;;;;;;18.67;6.32;;;;;;;11.05;100.00;102265.53;5053200;28;20053;-51
2022/01/01 07:25:12;;;;;;;15.68;6.15;;;;;;;10.99;100.00;102267.50;5053084;28;20099;-54
2022/01/01 07:27:40;;;;;;;15.45;5.50;;;;;;;10.97;100.00;102271.09;5053054;28;20053;-54
2022/01/01 07:30:09;;;;;;;16.33;6.13;;;;;;;10.89;100.00;102281.97;5049938;28;20057;-54
2022/01/01 07:32:46;;;;;;;16.20;5.93;;;;;;;10.89;100.00;102289.03;5049985;28;20492;-55
2022/01/01 07:35:16;;;;;;;13.68;5.60;;;;;;;10.88;100.00;102287.31;5052835;28;20131;-54
2022/01/01 07:37:44;;;;;;;14.32;5.63;;;;;;;10.86;100.00;102283.91;5052476;28;20071;-54
2022/01/01 07:40:14;;;;;;;13.30;5.30;;;;;;;10.90;100.00;102286.31;5052350;28;20460;-54
2022/01/01 07:42:43;;;;;;;14.93;6.15;;;;;;;10.87;100.00;102286.47;5052514;28;20049;-54
2022/01/01 07:45:13;;;;;;;18.42;5.65;;;;;;;10.91;100.00;102284.56;5052467;28;20075;-52
2022/01/01 07:47:42;;;;;;;14.80;5.53;;;;;;;10.94;100.00;102287.06;5052601;28;20063;-55
2022/01/01 07:50:11;;;;;;;14.55;5.63;;;;;;;10.97;100.00;102284.28;5052347;28;20047;-53
2022/01/01 07:52:40;;;;;;;13.60;5.38;;;;;;;10.95;100.00;102289.59;5052470;28;20570;-51
2022/01/01 07:55:09;;;;;;;18.58;5.55;;;;;;;10.92;100.00;102288.88;5049437;28;20069;-50
2022/01/01 07:57:37;;;;;;;12.15;5.10;;;;;;;10.90;100.00;102299.47;5049793;28;20045;-49
2022/01/01 08:00:07;;;;;;;12.60;5.13;;;;;;;10.95;100.00;102300.13;5052195;28;20049;-52
2022/01/01 08:02:40;;;;;;;12.77;5.35;;;;;;;10.95;100.00;102292.25;5052260;28;20049;-52
2022/01/01 08:05:11;;;;;;;14.48;4.70;;;;;;;10.93;100.00;102285.34;5052225;28;20053;-50
2022/01/01 08:07:39;;;;;;;13.48;5.18;;;;;;;10.88;100.00;102292.56;5052001;28;20493;-53
2022/01/01 08:10:28;;;;;;;15.77;5.65;;;;;;;10.94;100.00;102294.94;5051005;28;20037;-51
2022/01/01 08:12:56;;;;;;;12.25;4.70;;;;;;;10.94;100.00;102300.22;5049624;28;20045;-53
2022/01/01 08:15:24;;;;;;;12.65;4.53;;;;;;;10.92;100.00;102294.13;5051404;28;20480;-52
2022/01/01 08:17:52;;;;;;;14.15;4.95;;;;;;;10.90;100.00;102301.25;5051465;28;20503;-50
2022/01/01 08:20:22;;;;;;;13.73;6.05;;;;;;;10.91;100.00;102302.97;5052172;28;20053;-52
2022/01/01 08:22:50;;;;;;;13.00;4.65;;;;;;;10.87;100.00;102293.50;5051959;28;20053;-53
2022/01/01 08:25:20;;;;;;;14.93;4.50;;;;;;;10.87;100.00;102296.13;5052102;28;20476;-52
2022/01/01 08:27:48;;;;;;;12.40;4.15;;;;;;;10.89;100.00;102291.66;5051740;28;20091;-51
2022/01/01 08:30:16;;;;;;;16.45;5.25;;;;;;;10.89;100.00;102297.75;5049062;28;20491;-51
2022/01/01 08:32:44;;;;;;;12.30;4.50;;;;;;;10.91;100.00;102293.31;5048701;28;20049;-52
2022/01/01 08:35:12;;;;;;;15.05;5.13;;;;;;;10.97;100.00;102290.38;5051566;28;20045;-53
2022/01/01 08:37:42;;;;;;;12.30;4.72;;;;;;;10.93;100.00;102293.22;5050738;28;20110;-53
2022/01/01 08:40:11;;;;;;;12.70;5.07;;;;;;;10.96;100.00;102290.44;5049110;28;20055;-52
2022/01/01 08:42:39;;;;;;;11.43;4.78;;;;;;;10.99;100.00;102290.34;5050686;28;20049;-53
2022/01/01 08:45:08;;;;;;;11.43;4.75;;;;;;;11.01;100.00;102287.63;5051451;28;20052;-53
2022/01/01 08:47:36;;;;;;;13.27;5.78;;;;;;;11.03;100.00;102285.78;5050405;28;20057;-52
2022/01/01 08:50:05;;;;;;;13.15;5.10;;;;;;;11.08;100.00;102292.53;5051424;28;20041;-53
2022/01/01 08:52:33;;;;;;;16.33;5.10;;;;;;;11.18;100.00;102290.38;5051406;28;20436;-53
2022/01/01 08:55:03;;;;;;;13.45;5.15;;;;;;;11.19;100.00;102284.16;5050832;28;20052;-49
2022/01/01 08:57:32;;;;;;;14.80;5.05;;;;;;;11.21;100.00;102290.22;5048749;28;20527;-49
2022/01/01 09:00:01;;;;;;;13.98;5.07;;;;;;;11.23;100.00;102298.06;5049172;28;20068;-50
2022/01/01 09:02:29;;;;;;;16.02;4.78;;;;;;;11.25;100.00;102293.59;5051647;28;20041;-48
2022/01/01 09:04:57;;;;;;;11.50;4.50;;;;;;;11.37;100.00;102300.06;5051684;28;20037;-50
2022/01/01 09:07:28;;;;;;;11.57;4.22;;;;;;;11.36;100.00;102298.34;5051177;28;20102;-52
2022/01/01 09:09:57;;;;;;;13.13;5.28;;;;;;;11.40;100.00;102307.81;5048521;28;20053;-52
2022/01/01 09:12:27;;;;;;;14.10;4.65;;;;;;;11.39;100.00;102303.50;5048231;28;20097;-52
2022/01/01 09:14:56;;;;;;;10.70;4.50;;;;;;;11.44;100.00;102306.78;5051312;28;20073;-52
2022/01/01 09:17:24;;;;;;;13.88;4.95;;;;;;;11.42;100.00;102298.09;5050044;28;20519;-52
2022/01/01 09:19:53;;;;;;;15.88;6.20;;;;;;;11.46;100.00;102300.50;5051171;28;20048;-53
2022/01/01 09:22:21;;;;;;;11.18;4.40;;;;;;;11.53;100.00;102306.34;5051141;28;20044;-51
2022/01/01 09:24:49;;;;;;;9.77;4.60;;;;;;;11.57;100.00;102305.28;5051003;28;20061;-52
2022/01/01 09:27:17;;;;;;;13.98;4.25;;;;;;;11.56;100.00;102307.97;5050333;28;20056;-52
2022/01/01 09:29:46;;;;;;;12.98;4.50;;;;;;;11.60;100.00;102301.66;5050615;28;20079;-53
2022/01/01 09:32:14;;;;;;;12.00;4.43;;;;;;;11.61;100.00;102301.56;5052661;28;20048;-52
2022/01/01 09:34:44;;;;;;;14.43;5.45;;;;;;;11.63;100.00;102302.38;5055302;28;20069;-50
2022/01/01 09:37:12;;;;;;;13.77;4.40;;;;;;;11.66;100.00;102296.94;5054849;28;20049;-52
2022/01/01 09:39:41;;;;;;;13.13;4.78;;;;;;;11.65;100.00;102303.13;5052564;28;20507;-52
2022/01/01 09:42:11;;;;;;;13.70;5.30;;;;;;;11.69;100.00;102301.22;5052415;28;20451;-51
2022/01/01 09:44:40;;;;;;;13.10;4.15;;;;;;;11.70;100.00;102305.56;5054808;28;20496;-52
2022/01/01 09:47:11;;;;;;;13.05;4.15;;;;;;;11.75;100.00;102294.81;5054597;28;20045;-52
2022/01/01 09:49:42;;;;;;;10.20;4.22;;;;;;;11.84;100.00;102283.84;5054398;28;20069;-52
2022/01/01 09:52:12;;;;;;;15.88;5.00;;;;;;;11.84;100.00;102289.09;5054656;28;20049;-52
2022/01/01 09:54:44;;;;;;;13.30;4.80;;;;;;;11.90;100.00;102288.84;5054762;28;20044;-52
2022/01/01 09:57:12;;;;;;;13.65;4.72;;;;;;;11.86;100.00;102281.13;5052206;28;20080;-53
2022/01/01 09:59:41;;;;;;;12.23;4.30;;;;;;;11.87;100.00;102285.47;5052100;28;20060;-52
2022/01/01 10:02:11;;;;;;;12.95;4.72;;;;;;;11.88;100.00;102282.75;5053290;28;20049;-51
2022/01/01 10:04:43;;;;;;;13.02;5.13;;;;;;;11.95;100.00;102281.56;5054452;28;20059;-50
2022/01/01 10:07:13;;;;;;;15.05;5.55;;;;;;;11.94;100.00;102276.34;5054404;28;20052;-49
2022/01/01 10:09:42;;;;;;;12.55;4.65;;;;;;;11.91;100.00;102279.13;5054124;28;20044;-53
2022/01/01 10:12:15;;;;;;;13.25;4.70;;;;;;;11.92;100.00;102267.66;5054197;28;20103;-53
2022/01/01 10:14:45;;;;;;;12.32;5.28;;;;;;;11.92;100.00;102260.59;5051617;28;20050;-53
2022/01/01 10:17:17;;;;;;;11.90;4.60;;;;;;;12.01;100.00;102259.31;5050785;28;20063;-54
2022/01/01 10:19:45;;;;;;;10.00;4.32;;;;;;;12.00;100.00;102255.00;5052072;28;20091;-52
2022/01/01 10:22:17;;;;;;;14.68;4.88;;;;;;;11.98;100.00;102246.28;5054389;28;20080;-53
2022/01/01 10:27:46;;;;;;;11.25;5.47;;;;;;;11.99;100.00;102245.38;5019879;28;20064;-52
2022/01/01 10:30:19;;;;;;;12.10;4.30;;;;;;;12.11;100.00;102238.66;5047613;28;20160;-53
2022/01/01 10:33:03;;;;;;;13.75;5.28;;;;;;;12.14;100.00;102230.56;5052051;28;20139;-51
2022/01/01 10:35:36;;;;;;;12.13;4.90;;;;;;;12.14;100.00;102225.31;5054155;28;20073;-53
2022/01/01 10:38:06;;;;;;;9.20;4.82;;;;;;;12.18;100.00;102225.06;5054199;28;20484;-50
2022/01/01 10:40:34;;;;;;;11.43;4.15;;;;;;;12.22;100.00;102227.56;5041848;28;20064;-47
2022/01/01 10:43:02;;;;;;;12.32;6.55;;;;;;;12.30;100.00;102226.22;5031057;28;20443;-50
2022/01/01 10:45:32;;;;;;;11.27;4.65;;;;;;;12.29;100.00;102227.16;5032817;28;20132;-49
2022/01/01 10:48:17;;;;;;;12.13;4.55;;;;;;;12.36;100.00;102225.06;5033730;28;20053;-48
2022/01/01 10:50:47;;;;;;;13.35;4.82;;;;;;;12.39;100.00;102221.41;5040254;28;20041;-48
2022/01/01 10:53:16;;;;;;;9.88;3.80;;;;;;;12.42;100.00;102210.72;5053072;28;20041;-52
2022/01/01 10:55:46;;;;;;;12.15;4.15;;;;;;;12.48;100.00;102219.16;5048834;28;20069;-49
2022/01/01 10:58:19;;;;;;;9.80;4.18;;;;;;;12.45;100.00;102214.06;5053576;28;20545;-52
2022/01/01 11:00:47;;;;;;;11.60;4.35;;;;;;;12.49;100.00;102217.41;5046356;28;20075;-51
2022/01/01 11:03:20;;;;;;;9.07;3.70;;;;;;;12.53;100.00;102216.31;5051064;28;20052;-51
2022/01/01 11:05:51;;;;;;;10.60;4.53;;;;;;;12.59;100.00;102221.25;5053866;28;20049;-51
2022/01/01 11:08:20;;;;;;;10.75;4.13;;;;;;;12.67;100.00;102219.06;5053508;28;20407;-48
2022/01/01 11:10:48;;;;;;;11.02;4.50;;;;;;;12.67;100.00;102228.78;5053769;28;20438;-50
2022/01/01 11:13:16;;;;;;;10.07;4.20;;;;;;;12.68;100.00;102223.41;5046073;28;20480;-49
2022/01/01 11:15:45;;;;;;;11.43;4.28;;;;;;;12.70;100.00;102220.69;5053280;28;20095;-50
2022/01/01 11:18:13;;;;;;;11.60;4.20;;;;;;;12.74;100.00;102226.69;5053128;28;20057;-50
2022/01/01 11:20:44;;;;;;;12.80;4.53;;;;;;;12.80;100.00;102210.50;5051011;28;20083;-49